Time;durP1;ratioP1;P1;durP2;ratioP2;P2;SDS_P1;SDS_P2;PMS_P1;PMS_P2;Temp;Humidity;BMP_temperature;BMP_pressure;BME280_temperature;BME280_humidity;BME280_pressure;Samples;Min_cycle;Max_cycle;Signal;HPM_P1;HPM_P2
2020/12/22 00:00:36;;;;;;;15.00;7.80;;;;;;;10.53;50.12;153880.11;1747322;81;21145;-68
2020/12/22 00:03:09;;;;;;;14.05;7.50;;;;;;;10.55;50.11;153885.36;1752178;81;21909;-68
2020/12/22 00:05:41;;;;;;;15.58;8.25;;;;;;;10.50;49.92;153870.94;1756650;81;21314;-68
2020/12/22 00:08:14;;;;;;;15.18;8.73;;;;;;;10.58;49.87;153893.23;1751215;81;21167;-68
2020/12/22 00:10:47;;;;;;;16.45;8.98;;;;;;;10.57;49.79;153889.33;1754843;81;21161;-68
2020/12/22 00:13:19;;;;;;;13.60;7.40;;;;;;;10.56;49.87;153887.98;1755257;81;21398;-68
2020/12/22 00:15:52;;;;;;;16.48;8.48;;;;;;;10.57;49.63;153890.61;1749604;81;21214;-68
2020/12/22 00:18:25;;;;;;;18.35;9.70;;;;;;;10.41;49.75;153847.36;1757558;81;21310;-68
2020/12/22 00:20:57;;;;;;;20.82;10.45;;;;;;;10.05;49.93;153754.34;1745388;81;21214;-68
2020/12/22 00:23:30;;;;;;;18.07;9.43;;;;;;;10.00;50.30;153741.22;1756613;81;21169;-69
2020/12/22 00:26:02;;;;;;;22.87;10.72;;;;;;;10.05;50.35;153754.34;1746922;81;21174;-68
2020/12/22 00:28:34;;;;;;;23.70;9.68;;;;;;;10.17;50.53;153785.80;1750424;81;21674;-69
2020/12/22 00:31:07;;;;;;;20.60;9.35;;;;;;;10.28;50.33;153814.63;1757272;81;21321;-68
2020/12/22 00:33:39;;;;;;;25.52;11.00;;;;;;;10.34;50.20;153830.33;1727906;81;21179;-69
2020/12/22 00:36:12;;;;;;;20.23;11.43;;;;;;;10.36;50.23;153834.23;1729797;82;21310;-69
2020/12/22 00:38:47;;;;;;;21.82;10.60;;;;;;;10.40;50.21;153846.08;1723288;82;21222;-68
2020/12/22 00:41:20;;;;;;;25.50;11.53;;;;;;;10.46;50.15;153861.78;1724209;82;21340;-68
2020/12/22 00:43:52;;;;;;;25.10;11.68;;;;;;;10.50;50.22;153870.94;1723715;82;21321;-68
2020/12/22 00:46:25;;;;;;;24.65;11.05;;;;;;;10.54;50.28;153882.73;1729214;82;21223;-68
2020/12/22 00:48:57;;;;;;;20.95;10.00;;;;;;;10.66;50.43;153912.91;1722366;82;21278;-68
2020/12/22 00:51:30;;;;;;;21.90;11.40;;;;;;;10.79;50.14;153949.63;1734296;82;21352;-68
2020/12/22 00:54:03;;;;;;;21.70;10.78;;;;;;;10.60;49.84;153897.16;1720023;82;21246;-68
2020/12/22 00:56:35;;;;;;;24.20;11.00;;;;;;;10.49;49.98;153868.31;1729442;82;21401;-68
2020/12/22 00:59:10;;;;;;;21.33;10.55;;;;;;;10.47;50.08;153863.13;1710227;82;21163;-68
2020/12/22 01:01:42;;;;;;;21.37;11.12;;;;;;;10.44;50.12;153855.23;1723503;82;21353;-69
2020/12/22 01:04:15;;;;;;;23.40;12.23;;;;;;;10.42;50.26;153851.28;1711809;82;21226;-68
2020/12/22 01:06:47;;;;;;;21.45;11.05;;;;;;;10.44;50.44;153856.53;1728061;82;21167;-69
2020/12/22 01:09:20;;;;;;;17.42;9.53;;;;;;;10.51;50.46;153874.91;1729363;82;21356;-68
2020/12/22 01:11:52;;;;;;;23.07;9.80;;;;;;;10.42;50.31;153849.98;1727871;82;21305;-68
2020/12/22 01:14:25;;;;;;;19.37;10.03;;;;;;;10.45;50.41;153859.16;1718469;82;21190;-68
2020/12/22 01:16:58;;;;;;;18.80;9.83;;;;;;;10.43;50.35;153852.63;1727273;82;21171;-68
2020/12/22 01:19:30;;;;;;;17.80;9.68;;;;;;;10.37;50.41;153836.86;1726587;82;21309;-70
2020/12/22 01:22:05;;;;;;;17.82;8.78;;;;;;;10.39;50.40;153843.45;1723391;82;21839;-70
2020/12/22 01:24:37;;;;;;;14.10;7.40;;;;;;;10.34;50.27;153830.33;1723033;82;21186;-68
2020/12/22 01:27:10;;;;;;;14.40;7.40;;;;;;;10.21;50.44;153796.25;1739821;80;21372;-68
2020/12/22 01:29:43;;;;;;;13.93;7.62;;;;;;;10.25;50.34;153806.75;1720634;82;21380;-68
2020/12/22 01:32:16;;;;;;;12.90;7.40;;;;;;;10.29;50.52;153817.25;1721068;82;21304;-68
2020/12/22 01:34:49;;;;;;;11.80;6.60;;;;;;;10.48;50.31;153867.03;1743615;81;21305;-69
2020/12/22 01:37:22;;;;;;;20.85;9.23;;;;;;;10.57;50.32;153890.61;1751659;81;21301;-68
2020/12/22 01:39:54;;;;;;;24.10;10.60;;;;;;;10.58;50.13;153893.23;1766346;81;21336;-69
2020/12/22 01:42:26;;;;;;;18.07;8.93;;;;;;;10.55;49.99;153884.06;1765312;81;21225;-68
2020/12/22 01:44:59;;;;;;;15.18;7.55;;;;;;;10.50;49.96;153872.28;1763194;81;21306;-68
2020/12/22 01:47:32;;;;;;;24.37;10.08;;;;;;;10.49;50.08;153868.31;1755497;80;21182;-68
2020/12/22 01:50:04;;;;;;;16.97;8.38;;;;;;;10.34;50.19;153830.33;1754616;81;21328;-66
2020/12/22 01:52:36;;;;;;;13.75;7.33;;;;;;;10.43;50.15;153852.63;1763467;80;21299;-72
2020/12/22 01:55:09;;;;;;;11.95;6.83;;;;;;;10.48;50.21;153867.03;1756240;81;21166;-68
2020/12/22 01:57:42;;;;;;;11.40;6.03;;;;;;;10.37;50.34;153836.86;1765551;81;21269;-67
2020/12/22 02:00:15;;;;;;;12.78;7.17;;;;;;;10.40;50.31;153846.08;1739522;81;22648;-66
2020/12/22 02:02:47;;;;;;;8.88;5.33;;;;;;;10.48;50.21;153867.03;1751919;81;21317;-66
2020/12/22 02:05:20;;;;;;;30.15;10.55;;;;;;;10.49;50.10;153868.31;1756224;81;21265;-66
2020/12/22 02:07:52;;;;;;;16.75;9.53;;;;;;;10.42;50.10;153851.28;1755134;81;21318;-66
2020/12/22 02:10:25;;;;;;;25.10;10.50;;;;;;;10.27;50.58;153812.00;1742285;81;21240;-69
2020/12/22 02:12:57;;;;;;;21.45;11.18;;;;;;;10.33;50.55;153827.69;1756815;81;21141;-66
2020/12/22 02:15:29;;;;;;;18.70;9.50;;;;;;;10.45;50.24;153857.87;1742681;81;21348;-69
2020/12/22 02:18:02;;;;;;;15.80;7.35;;;;;;;10.29;50.50;153817.25;1757042;81;21405;-66
2020/12/22 02:20:34;;;;;;;10.85;6.37;;;;;;;10.03;50.55;153749.11;1742711;81;21757;-66
2020/12/22 02:23:07;;;;;;;15.03;7.25;;;;;;;10.19;50.54;153791.00;1753183;81;21301;-66
2020/12/22 02:25:48;;;;;;;16.30;7.85;;;;;;;9.98;50.85;153734.64;1752807;81;21159;-67
2020/12/22 02:28:20;;;;;;;20.02;8.00;;;;;;;9.90;51.11;153713.64;1749135;81;21289;-71
2020/12/22 02:30:52;;;;;;;28.00;9.45;;;;;;;9.88;51.23;153709.73;1751412;81;21317;-66
2020/12/22 02:33:24;;;;;;;23.77;9.55;;;;;;;9.86;51.15;153703.20;1759330;81;21350;-67
2020/12/22 02:35:57;;;;;;;20.37;9.33;;;;;;;9.80;51.22;153687.45;1753743;81;21231;-66
2020/12/22 02:38:30;;;;;;;26.30;10.25;;;;;;;9.81;51.34;153688.80;1744216;81;21226;-66
2020/12/22 02:41:02;;;;;;;20.45;8.80;;;;;;;10.09;51.15;153764.80;1747627;81;21334;-67
2020/12/22 02:43:35;;;;;;;21.45;8.70;;;;;;;10.14;51.24;153776.59;1753804;81;21227;-68
2020/12/22 02:46:08;;;;;;;17.87;8.53;;;;;;;10.44;51.19;153855.23;1756678;81;21171;-69
2020/12/22 02:48:43;;;;;;;16.27;8.35;;;;;;;10.18;50.90;153788.42;1750746;81;21320;-69
2020/12/22 02:51:15;;;;;;;19.73;8.75;;;;;;;10.64;50.72;153909.00;1748197;81;21421;-70
2020/12/22 02:53:48;;;;;;;21.15;8.53;;;;;;;10.40;50.80;153846.08;1755484;81;21691;-71
2020/12/22 02:56:21;;;;;;;23.90;8.93;;;;;;;10.45;50.81;153859.16;1744790;81;21352;-70
2020/12/22 02:58:53;;;;;;;32.28;10.45;;;;;;;10.41;50.76;153848.70;1746578;81;21302;-69
2020/12/22 03:01:26;;;;;;;31.90;11.25;;;;;;;10.21;50.97;153796.25;1741588;81;21336;-68
2020/12/22 03:03:58;;;;;;;26.02;10.23;;;;;;;10.25;51.09;153805.41;1754166;81;21373;-69
2020/12/22 03:06:31;;;;;;;25.90;10.53;;;;;;;10.06;51.18;153755.64;1748458;81;21232;-72
2020/12/22 03:09:05;;;;;;;25.45;11.35;;;;;;;10.18;51.23;153788.42;1748929;81;21313;-70
2020/12/22 03:11:37;;;;;;;26.27;10.72;;;;;;;10.31;51.04;153822.44;1748078;81;21308;-68
2020/12/22 03:14:10;;;;;;;27.58;11.15;;;;;;;10.41;50.95;153848.70;1737470;81;21167;-69
2020/12/22 03:16:43;;;;;;;21.33;10.95;;;;;;;10.44;51.01;153856.53;1742672;81;21232;-67
2020/12/22 03:19:16;;;;;;;27.60;13.32;;;;;;;10.44;50.94;153856.53;1738499;82;21232;-67
2020/12/22 03:21:49;;;;;;;29.23;12.58;;;;;;;10.51;50.82;153874.91;1746864;81;21183;-67
2020/12/22 03:24:21;;;;;;;28.02;14.15;;;;;;;10.17;50.84;153784.47;1758198;81;21295;-70
2020/12/22 03:26:54;;;;;;;28.27;13.22;;;;;;;10.17;51.28;153785.80;1745810;81;21734;-69
2020/12/22 03:29:26;;;;;;;24.77;12.10;;;;;;;10.20;51.31;153792.34;1753476;81;21344;-71
2020/12/22 03:31:59;;;;;;;35.20;15.13;;;;;;;10.25;51.39;153805.41;1750181;81;21308;-69
2020/12/22 03:34:32;;;;;;;39.45;14.55;;;;;;;9.95;51.72;153728.06;1754930;80;21184;-69
2020/12/22 03:37:04;;;;;;;35.58;14.40;;;;;;;10.04;51.61;153750.39;1743644;81;21234;-69
2020/12/22 03:39:37;;;;;;;37.98;14.68;;;;;;;10.18;51.48;153788.42;1786036;80;21320;-68
2020/12/22 03:42:10;;;;;;;38.88;14.38;;;;;;;10.05;51.70;153754.34;1789859;80;21657;-68
2020/12/22 03:44:43;;;;;;;35.55;16.52;;;;;;;9.93;51.90;153721.52;1790596;80;21158;-68
2020/12/22 03:47:17;;;;;;;36.23;15.05;;;;;;;9.94;52.02;153725.48;1784489;80;21141;-68
2020/12/22 03:49:49;;;;;;;38.50;14.68;;;;;;;10.07;51.78;153759.55;1784482;80;21146;-69
2020/12/22 03:52:22;;;;;;;33.98;14.68;;;;;;;10.09;51.94;153764.80;1788286;79;21398;-74
2020/12/22 03:54:54;;;;;;;38.33;14.45;;;;;;;10.06;52.08;153756.98;1774542;80;21848;-71
2020/12/22 03:57:26;;;;;;;37.65;15.28;;;;;;;9.98;52.11;153734.64;1785722;80;21343;-69
2020/12/22 03:59:59;;;;;;;35.23;14.50;;;;;;;10.17;51.91;153785.80;1788855;80;21316;-68
2020/12/22 04:02:34;;;;;;;34.73;13.55;;;;;;;10.20;51.87;153793.63;1778133;79;21749;-68
2020/12/22 04:05:06;;;;;;;37.93;15.25;;;;;;;10.31;51.83;153822.44;1786308;79;21375;-68
2020/12/22 04:07:39;;;;;;;31.07;13.25;;;;;;;10.17;51.81;153784.47;1775700;80;21210;-67
2020/12/22 04:10:11;;;;;;;31.95;13.13;;;;;;;10.26;51.76;153808.03;1784803;80;21288;-67
2020/12/22 04:12:43;;;;;;;28.35;12.55;;;;;;;10.26;51.78;153808.03;1790666;79;21300;-67
2020/12/22 04:15:16;;;;;;;30.90;13.40;;;;;;;10.24;51.97;153804.12;1790738;79;21142;-68
2020/12/22 04:17:48;;;;;;;35.63;13.35;;;;;;;10.28;51.82;153813.28;1790633;80;21166;-67
2020/12/22 04:20:21;;;;;;;33.55;13.35;;;;;;;10.32;51.91;153825.08;1790461;80;21209;-67
2020/12/22 04:22:53;;;;;;;31.07;13.13;;;;;;;10.32;51.81;153823.78;1794013;79;21166;-67
2020/12/22 04:25:26;;;;;;;33.88;13.78;;;;;;;10.25;51.89;153805.41;1790551;79;21146;-67
2020/12/22 04:27:59;;;;;;;27.73;12.80;;;;;;;10.09;52.09;153763.52;1790727;80;21229;-67
2020/12/22 04:30:32;;;;;;;23.80;11.08;;;;;;;10.08;52.08;153762.17;1793707;79;21294;-67
2020/12/22 04:33:04;;;;;;;23.30;9.05;;;;;;;9.91;52.45;153717.61;1797442;78;21420;-66
2020/12/22 04:35:36;;;;;;;19.45;8.68;;;;;;;9.77;52.48;153679.64;1790739;80;21182;-66
2020/12/22 04:38:09;;;;;;;18.10;9.10;;;;;;;9.94;52.34;153725.48;1789807;80;21439;-66
2020/12/22 04:40:41;;;;;;;18.75;9.65;;;;;;;9.98;52.30;153735.98;1797276;79;21308;-67
2020/12/22 04:43:13;;;;;;;23.45;9.18;;;;;;;10.07;52.30;153758.27;1790600;79;21213;-67
2020/12/22 04:45:49;;;;;;;19.60;7.80;;;;;;;10.18;52.18;153788.42;1801291;79;21396;-69
2020/12/22 04:48:22;;;;;;;14.73;6.90;;;;;;;10.08;52.21;153762.17;1786951;79;21171;-67
2020/12/22 04:50:56;;;;;;;19.15;8.68;;;;;;;10.11;52.24;153770.05;1802097;79;21154;-68
2020/12/22 04:53:29;;;;;;;13.38;6.35;;;;;;;10.11;52.24;153770.05;1801628;79;21835;-67
2020/12/22 04:56:02;;;;;;;11.20;5.62;;;;;;;10.06;52.21;153756.98;1803814;79;21336;-67
2020/12/22 04:58:36;;;;;;;15.18;5.97;;;;;;;10.13;52.23;153775.30;1798100;79;21304;-68
2020/12/22 05:01:09;;;;;;;13.38;5.83;;;;;;;10.10;52.26;153766.14;1801065;79;21296;-67
2020/12/22 05:03:41;;;;;;;10.53;6.45;;;;;;;10.32;51.99;153823.78;1800241;79;21301;-68
2020/12/22 05:06:13;;;;;;;11.28;5.87;;;;;;;10.15;52.25;153780.55;1797830;79;21440;-69
2020/12/22 05:08:46;;;;;;;9.48;5.10;;;;;;;10.48;51.70;153867.03;1797405;79;21174;-68
2020/12/22 05:11:18;;;;;;;12.93;5.42;;;;;;;10.54;51.65;153882.73;1804331;79;21170;-70
2020/12/22 05:13:53;;;;;;;10.10;5.28;;;;;;;10.63;51.56;153905.03;1799682;78;21190;-68
2020/12/22 05:16:28;;;;;;;10.72;5.87;;;;;;;10.64;51.44;153907.66;1799999;79;21155;-68
2020/12/22 05:19:02;;;;;;;10.65;4.90;;;;;;;10.59;51.45;153895.86;1800947;79;21340;-68
2020/12/22 05:21:38;;;;;;;9.23;5.28;;;;;;;10.39;51.70;153842.11;1776507;79;21162;-68
2020/12/22 05:24:11;;;;;;;11.55;5.33;;;;;;;10.36;51.87;153834.23;1763441;79;21169;-70
2020/12/22 05:26:43;;;;;;;7.62;4.45;;;;;;;10.29;51.83;153815.91;1771770;78;21423;-67
2020/12/22 05:29:20;;;;;;;12.23;5.97;;;;;;;10.28;52.05;153813.28;1797797;79;21163;-66
2020/12/22 05:31:53;;;;;;;12.68;6.50;;;;;;;10.37;51.96;153838.20;1803263;79;21197;-67
2020/12/22 05:34:27;;;;;;;12.60;5.90;;;;;;;10.30;52.49;153819.83;1800390;79;21321;-65
2020/12/22 05:37:00;;;;;;;10.05;5.35;;;;;;;10.28;52.33;153814.63;1790629;79;23921;-67
2020/12/22 05:39:39;;;;;;;8.45;5.37;;;;;;;10.37;52.39;153836.86;1794891;79;21311;-69
2020/12/22 05:42:15;;;;;;;8.63;5.60;;;;;;;10.43;52.35;153853.91;1789280;79;21856;-68
2020/12/22 05:44:49;;;;;;;9.90;5.85;;;;;;;10.41;52.75;153848.70;1785164;78;21781;-67
2020/12/22 05:47:22;;;;;;;10.53;5.20;;;;;;;10.34;52.82;153830.33;1785827;80;21304;-67
2020/12/22 05:49:57;;;;;;;11.05;5.28;;;;;;;10.29;52.76;153817.25;1788150;78;21250;-69
2020/12/22 05:52:30;;;;;;;10.03;5.28;;;;;;;10.36;53.58;153834.23;1785947;78;21297;-66
2020/12/22 05:55:03;;;;;;;10.68;5.72;;;;;;;10.45;53.07;153857.87;1789102;78;21308;-67
2020/12/22 05:57:35;;;;;;;10.93;5.80;;;;;;;10.45;53.07;153859.16;1788285;80;21182;-69
2020/12/22 06:00:15;;;;;;;10.43;5.10;;;;;;;10.49;54.44;153868.31;1789685;79;21182;-66
2020/12/22 06:02:48;;;;;;;9.63;5.77;;;;;;;10.51;53.45;153873.56;1782088;78;21197;-66
2020/12/22 06:05:21;;;;;;;9.58;5.37;;;;;;;10.59;53.22;153895.86;1788835;79;21333;-67
2020/12/22 06:07:54;;;;;;;9.85;5.65;;;;;;;10.60;53.45;153898.48;1787313;80;21328;-65
2020/12/22 06:10:26;;;;;;;9.13;5.25;;;;;;;10.65;52.85;153910.28;1787504;80;21359;-67
2020/12/22 06:12:59;;;;;;;8.83;5.58;;;;;;;10.41;53.59;153848.70;1780017;79;21312;-67
2020/12/22 06:15:33;;;;;;;10.82;5.30;;;;;;;10.51;53.69;153873.56;1788681;80;21329;-67
2020/12/22 06:18:05;;;;;;;8.60;4.72;;;;;;;10.46;53.80;153861.78;1785111;79;21178;-67
2020/12/22 06:20:43;;;;;;;12.07;4.87;;;;;;;10.52;53.46;153877.53;1774852;80;21229;-68
2020/12/22 06:23:21;;;;;;;12.30;5.47;;;;;;;10.46;53.77;153860.48;1786958;79;21356;-66
2020/12/22 06:26:15;;;;;;;8.58;4.58;;;;;;;10.43;55.59;153853.91;1787078;80;21720;-68
2020/12/22 06:28:56;;;;;;;6.40;4.45;;;;;;;10.44;55.28;153856.53;1790046;80;21356;-65
2020/12/22 06:31:34;;;;;;;8.85;5.25;;;;;;;10.56;54.74;153887.98;1790015;80;21384;-65
2020/12/22 06:34:09;;;;;;;9.30;4.80;;;;;;;10.66;54.23;153914.19;1790636;79;21297;-66
2020/12/22 06:36:57;;;;;;;10.38;5.67;;;;;;;10.58;53.96;153893.23;1765072;80;21356;-74
2020/12/22 06:39:48;;;;;;;8.60;4.60;;;;;;;10.60;53.92;153898.48;1766436;80;21619;-68
2020/12/22 06:42:40;;;;;;;10.03;5.37;;;;;;;10.41;54.84;153847.36;1769044;81;21369;-67
2020/12/22 06:45:31;;;;;;;9.60;5.08;;;;;;;10.55;54.06;153885.36;1794976;80;21298;-67
2020/12/22 06:48:04;;;;;;;8.40;4.95;;;;;;;10.56;54.28;153887.98;1764759;80;21156;-67
2020/12/22 06:50:44;;;;;;;9.28;5.10;;;;;;;10.68;54.48;153918.16;1794797;80;21767;-68
2020/12/22 06:53:35;;;;;;;;;;;;;;;10.74;54.56;153935.20;1797484;80;21331;-69
2020/12/22 06:56:07;;;;;;;10.13;5.12;;;;;;;10.74;54.19;153935.20;1795191;80;20638;-67
2020/12/22 06:58:49;;;;;;;10.70;5.58;;;;;;;10.71;53.75;153927.31;1794843;80;21386;-69
2020/12/22 07:01:30;;;;;;;10.60;5.67;;;;;;;10.71;53.92;153925.98;1794778;80;21307;-67
2020/12/22 07:04:18;;;;;;;10.38;5.30;;;;;;;10.76;54.28;153939.13;1795091;80;21486;-69
2020/12/22 07:06:51;;;;;;;10.05;5.15;;;;;;;10.70;54.30;153924.70;1795076;80;21358;-68
2020/12/22 07:09:25;;;;;;;10.88;5.10;;;;;;;10.71;54.66;153925.98;1794683;80;21350;-69
2020/12/22 07:12:15;;;;;;;9.93;5.37;;;;;;;10.77;54.98;153941.73;1765766;80;21310;-66
2020/12/22 07:14:51;;;;;;;10.23;5.85;;;;;;;10.89;54.74;153975.83;1794624;78;21221;-68
2020/12/22 07:17:24;;;;;;;10.53;5.78;;;;;;;10.95;54.64;153991.55;1766112;80;21276;-69
2020/12/22 07:19:57;;;;;;;9.68;5.40;;;;;;;10.98;54.22;153999.42;1765370;80;21249;-68
2020/12/22 07:22:31;;;;;;;9.68;6.05;;;;;;;10.99;54.09;154002.06;1793393;79;21328;-73
2020/12/22 07:25:06;;;;;;;13.13;5.92;;;;;;;11.13;54.13;154037.44;1794967;80;21204;-67
2020/12/22 07:27:39;;;;;;;12.45;6.50;;;;;;;11.18;53.91;154051.88;1795101;78;21323;-69
2020/12/22 07:30:11;;;;;;;10.70;5.05;;;;;;;11.30;53.79;154083.34;1794848;80;21326;-67
2020/12/22 07:32:44;;;;;;;12.00;6.00;;;;;;;11.36;53.77;154097.77;1809706;78;21465;-66
2020/12/22 07:35:19;;;;;;;13.83;7.00;;;;;;;11.42;53.70;154113.55;1795018;80;21822;-68
2020/12/22 07:37:53;;;;;;;10.58;6.10;;;;;;;11.51;53.33;154137.14;1765392;80;22437;-67
2020/12/22 07:40:25;;;;;;;14.03;6.30;;;;;;;11.45;53.20;154121.42;1795147;80;21264;-68
2020/12/22 07:43:12;;;;;;;10.78;6.08;;;;;;;11.50;53.30;154134.52;1794924;78;21360;-65
2020/12/22 07:45:51;;;;;;;13.62;6.75;;;;;;;11.65;53.17;154173.94;1802291;79;21372;-67
2020/12/22 07:48:23;;;;;;;11.35;6.28;;;;;;;11.70;53.38;154189.66;1802866;79;21261;-69
2020/12/22 07:50:56;;;;;;;13.20;7.00;;;;;;;11.77;53.80;154206.72;1802954;79;21848;-69
2020/12/22 07:53:28;;;;;;;12.15;6.45;;;;;;;11.75;53.42;154202.80;1799904;79;21175;-67
2020/12/22 07:56:04;;;;;;;16.37;7.65;;;;;;;11.89;53.14;154238.22;1795058;80;21274;-68
2020/12/22 07:58:37;;;;;;;14.63;7.45;;;;;;;11.88;53.09;154236.92;1795057;80;21259;-70
2020/12/22 08:01:10;;;;;;;14.40;7.05;;;;;;;11.90;52.83;154240.84;1798940;79;21879;-68
2020/12/22 08:03:42;;;;;;;13.65;6.90;;;;;;;11.90;52.84;154242.19;1802989;79;21376;-69
2020/12/22 08:06:15;;;;;;;19.87;8.40;;;;;;;11.84;53.06;154226.41;1803279;79;21396;-68
2020/12/22 08:09:01;;;;;;;14.65;6.55;;;;;;;11.78;52.94;154210.69;1804367;79;21317;-68
2020/12/22 08:11:33;;;;;;;12.30;6.55;;;;;;;11.89;52.75;154238.22;1804413;79;21301;-66
2020/12/22 08:14:06;;;;;;;16.52;7.95;;;;;;;11.86;52.91;154231.66;1799536;79;21230;-65
2020/12/22 08:16:38;;;;;;;15.50;7.55;;;;;;;12.03;52.77;154276.31;1804541;79;21297;-66
2020/12/22 08:19:11;;;;;;;15.72;7.95;;;;;;;12.08;52.84;154289.41;1804167;79;21339;-66
2020/12/22 08:21:43;;;;;;;14.63;7.22;;;;;;;12.18;52.83;154315.66;1799692;79;21302;-65
2020/12/22 08:24:17;;;;;;;17.25;8.80;;;;;;;12.23;52.69;154328.81;1802237;79;21354;-65
2020/12/22 08:26:53;;;;;;;13.95;7.45;;;;;;;12.19;52.52;154318.28;1802451;79;21792;-66
2020/12/22 08:29:25;;;;;;;14.78;7.40;;;;;;;12.15;52.20;154307.77;1796531;80;21306;-65
2020/12/22 08:32:00;;;;;;;12.90;7.03;;;;;;;12.21;52.12;154322.25;1796690;80;21318;-65
2020/12/22 08:34:33;;;;;;;11.75;6.78;;;;;;;12.10;51.91;154293.33;1796321;80;21318;-65
2020/12/22 08:37:09;;;;;;;14.00;6.97;;;;;;;12.03;51.88;154274.97;1798997;79;21904;-65
2020/12/22 08:39:44;;;;;;;11.75;6.45;;;;;;;11.99;52.59;154265.80;1804239;79;21384;-65
2020/12/22 08:42:17;;;;;;;15.58;7.50;;;;;;;12.07;52.31;154286.78;1804375;79;21175;-66
2020/12/22 08:44:51;;;;;;;13.55;6.62;;;;;;;12.05;52.38;154281.52;1804055;79;21297;-66
2020/12/22 08:47:23;;;;;;;17.85;7.95;;;;;;;12.04;53.31;154278.89;1803317;79;21171;-65
2020/12/22 08:49:56;;;;;;;13.95;7.55;;;;;;;12.14;52.48;154303.84;1804438;79;21210;-66
2020/12/22 08:52:29;;;;;;;14.63;8.18;;;;;;;12.15;52.26;154307.77;1774219;79;21186;-64
2020/12/22 08:55:02;;;;;;;20.12;8.78;;;;;;;12.21;52.20;154323.55;1804098;79;21310;-63
2020/12/22 08:57:35;;;;;;;21.40;9.95;;;;;;;12.27;51.90;154337.98;1804361;79;21181;-63
2020/12/22 09:00:17;;;;;;;22.62;12.07;;;;;;;12.27;51.65;154337.98;1804177;79;21311;-63
2020/12/22 09:02:52;;;;;;;39.35;17.32;;;;;;;12.19;51.55;154318.28;1804355;79;21318;-63
2020/12/22 09:05:28;;;;;;;35.78;21.10;;;;;;;12.18;51.72;154314.36;1804309;79;21155;-63
2020/12/22 09:08:04;;;;;;;39.25;25.02;;;;;;;12.23;51.74;154327.47;1804474;79;21182;-63
2020/12/22 09:10:37;;;;;;;38.42;24.90;;;;;;;12.27;51.56;154339.28;1804326;79;21214;-64
2020/12/22 09:13:17;;;;;;;31.50;19.40;;;;;;;12.27;51.42;154339.28;1774839;79;21252;-65
2020/12/22 09:15:56;;;;;;;31.35;14.25;;;;;;;12.26;51.60;154336.69;1804216;79;21378;-65
2020/12/22 09:18:28;;;;;;;30.97;15.80;;;;;;;12.19;51.72;154318.28;1797012;79;21327;-64
2020/12/22 09:21:07;;;;;;;24.55;14.30;;;;;;;12.05;51.80;154280.23;1796537;80;21302;-65
2020/12/22 09:23:45;;;;;;;23.27;11.95;;;;;;;12.11;51.85;154297.30;1795265;79;21902;-65
2020/12/22 09:26:17;;;;;;;27.07;14.68;;;;;;;12.24;51.70;154330.09;1804259;79;21392;-65
2020/12/22 09:28:50;;;;;;;33.80;18.42;;;;;;;12.29;51.82;154343.25;1804324;79;21797;-64
2020/12/22 09:31:26;;;;;;;43.78;27.80;;;;;;;12.28;51.78;154341.91;1804419;79;21178;-65
2020/12/22 09:33:59;;;;;;;34.58;19.67;;;;;;;12.28;51.93;154340.61;1802564;79;21344;-64
2020/12/22 09:36:31;;;;;;;27.85;16.52;;;;;;;12.29;51.85;154344.53;1804139;79;21678;-65
2020/12/22 09:39:03;;;;;;;26.48;13.05;;;;;;;12.22;51.71;154324.83;1804274;79;21379;-65
2020/12/22 09:41:44;;;;;;;23.75;10.90;;;;;;;12.24;51.42;154330.09;1804244;79;21380;-66
2020/12/22 09:44:17;;;;;;;37.03;20.20;;;;;;;12.25;51.49;154334.06;1772837;81;21245;-64
2020/12/22 09:46:52;;;;;;;30.02;14.23;;;;;;;12.16;51.58;154310.39;1769287;81;21211;-65
2020/12/22 09:49:27;;;;;;;27.75;11.75;;;;;;;12.11;51.43;154295.95;1783814;79;21838;-65
2020/12/22 09:51:59;;;;;;;35.30;13.60;;;;;;;11.94;51.69;154252.66;1801766;79;21168;-68
2020/12/22 09:54:32;;;;;;;53.17;28.52;;;;;;;11.99;51.97;154264.45;1795993;79;21165;-67
2020/12/22 09:57:04;;;;;;;41.58;20.68;;;;;;;11.94;51.91;154252.66;1804468;79;21365;-66
2020/12/22 09:59:37;;;;;;;38.08;20.70;;;;;;;12.29;51.48;154343.25;1798771;79;21385;-67
2020/12/22 10:02:10;;;;;;;36.63;19.92;;;;;;;12.15;51.30;154306.47;1795325;80;21230;-67
2020/12/22 10:04:42;;;;;;;25.95;13.15;;;;;;;12.29;51.30;154343.25;1795659;80;21663;-66
2020/12/22 10:07:15;;;;;;;30.85;14.75;;;;;;;12.24;51.11;154331.44;1795072;80;22223;-67
2020/12/22 10:09:47;;;;;;;31.30;14.10;;;;;;;12.22;51.16;154326.17;1799824;79;21219;-66
2020/12/22 10:12:21;;;;;;;34.60;13.83;;;;;;;12.25;51.25;154334.06;1803634;79;21185;-69
2020/12/22 10:14:54;;;;;;;30.92;13.13;;;;;;;12.26;51.08;154335.34;1803192;79;21216;-66
2020/12/22 10:17:26;;;;;;;29.32;13.93;;;;;;;12.20;51.24;154319.62;1801317;79;21151;-67
2020/12/22 10:19:59;;;;;;;35.80;16.20;;;;;;;12.22;51.17;154326.17;1773941;80;21215;-66
2020/12/22 10:22:32;;;;;;;53.28;24.92;;;;;;;12.15;51.41;154307.77;1795928;80;21816;-66
2020/12/22 10:25:04;;;;;;;36.00;15.88;;;;;;;12.41;51.08;154376.05;1795007;79;21311;-66
2020/12/22 10:27:37;;;;;;;30.90;13.32;;;;;;;12.54;50.83;154410.19;1804571;79;21346;-66
2020/12/22 10:30:09;;;;;;;33.38;13.35;;;;;;;12.41;50.73;154376.05;1804728;79;21353;-65
2020/12/22 10:32:42;;;;;;;31.48;13.15;;;;;;;12.37;50.76;154364.23;1804218;79;21247;-66
2020/12/22 10:35:14;;;;;;;34.88;13.22;;;;;;;12.25;50.73;154332.72;1800818;79;21318;-66
2020/12/22 10:37:47;;;;;;;34.33;13.08;;;;;;;12.20;51.00;154319.62;1793902;80;21335;-66
2020/12/22 10:40:19;;;;;;;36.03;14.13;;;;;;;12.18;51.07;154315.66;1790488;80;21203;-66
2020/12/22 10:42:51;;;;;;;32.23;13.53;;;;;;;12.19;51.26;154317.00;1790461;80;21208;-66
2020/12/22 10:45:24;;;;;;;38.08;13.83;;;;;;;12.03;51.55;154274.97;1790488;80;21307;-66
2020/12/22 10:47:56;;;;;;;38.53;15.05;;;;;;;12.14;51.60;154305.19;1795196;79;21219;-66
2020/12/22 10:50:29;;;;;;;37.13;15.83;;;;;;;12.17;51.29;154311.73;1804114;79;21310;-66
2020/12/22 10:53:01;;;;;;;41.58;16.32;;;;;;;12.23;51.18;154328.81;1804508;78;21374;-66
2020/12/22 10:55:34;;;;;;;137.77;63.28;;;;;;;12.24;51.28;154331.44;1802031;79;21166;-66
2020/12/22 10:58:07;;;;;;;83.65;49.00;;;;;;;12.20;51.30;154319.62;1790812;80;21317;-66
2020/12/22 11:00:40;;;;;;;41.75;15.48;;;;;;;12.12;51.31;154299.92;1790963;80;21328;-65
2020/12/22 11:03:17;;;;;;;46.75;19.30;;;;;;;11.89;51.55;154238.22;1791045;80;21190;-65
2020/12/22 11:06:16;;;;;;;42.88;15.85;;;;;;;11.94;51.67;154251.36;1793545;79;21334;-66
2020/12/22 11:08:44;;;;;;;38.30;15.32;;;;;;;11.86;51.59;154230.38;1804396;79;21306;-65
2020/12/22 11:11:16;;;;;;;39.53;15.85;;;;;;;12.00;51.52;154268.42;1804508;79;21310;-65
2020/12/22 11:13:49;;;;;;;40.88;15.28;;;;;;;11.71;51.94;154192.28;1804225;79;21374;-65
2020/12/22 11:16:28;;;;;;;40.90;16.40;;;;;;;11.89;51.91;154238.22;1798640;79;21736;-66
2020/12/22 11:19:01;;;;;;;37.42;15.88;;;;;;;11.88;51.80;154236.92;1790809;80;21317;-66
2020/12/22 11:21:35;;;;;;;34.78;13.18;;;;;;;11.96;51.67;154256.63;1799556;79;21385;-66
2020/12/22 11:24:08;;;;;;;32.80;13.50;;;;;;;11.92;51.83;154247.39;1804158;79;21176;-65
2020/12/22 11:26:40;;;;;;;31.87;13.58;;;;;;;11.89;51.67;154239.56;1804166;79;21326;-68
2020/12/22 11:29:13;;;;;;;34.70;16.10;;;;;;;11.80;51.92;154215.89;1804518;78;21322;-66
2020/12/22 11:31:50;;;;;;;37.20;17.57;;;;;;;12.01;51.66;154269.72;1795108;79;21304;-66
2020/12/22 11:34:22;;;;;;;37.33;17.45;;;;;;;12.15;51.49;154306.47;1790955;80;21804;-65
2020/12/22 11:36:55;;;;;;;31.50;13.72;;;;;;;12.03;51.82;154274.97;1790851;80;21708;-65
2020/12/22 11:39:28;;;;;;;32.58;14.15;;;;;;;12.06;51.84;154282.86;1796150;79;21287;-66
2020/12/22 11:42:04;;;;;;;30.70;12.82;;;;;;;12.13;51.61;154301.22;1804334;79;21327;-66
2020/12/22 11:44:36;;;;;;;29.40;13.48;;;;;;;12.15;51.51;154306.47;1804447;79;21192;-65